Ida — C4CZ2 — position and weather

sailwx.info

Track history (hours):
 
Tides and Currents Weather Stations Pressure Air Temp Water Temp Dewpoint Dewpoint Depression Visibility Wind Speed Wind Dir Waves Ship Positions

Ida

Last reported at 2014-Jul-29 05:33 UTC. Time now 2014-Jul-30 00:56 UTC.
Position N 52°59' E 001°14'.

Length 82 m; draft 4.6 m.

Type: Cargo ship. MMSI: 210319000.

Date/timePositionNaut miles runAvg speedWind from/ knotsBaromVisibWave heightAir tempDewpointWater temp
2014-Jul-29 05:33N 52°59' E 001°14'9 8.8
2014-Jul-29 04:33N 52°56' E 001°27'1110.5
2014-Jul-29 03:33N 52°50' E 001°42'1110.5
2014-Jul-29 02:32N 52°42' E 001°55'1110.3
2014-Jul-29 01:30N 52°32' E 001°54'17 7.6
2014-Jul-28 23:15N 52°15' E 001°52'4 5.8
2014-Jul-28 22:33N 52°11' E 001°51'5 5.3
2014-Jul-28 21:33N 52°06' E 001°50'4 4.5
2014-Jul-28 20:33N 52°01' E 001°50'5 5.1
2014-Jul-28 19:33N 51°56' E 001°49'6 5.9
2014-Jul-28 18:33N 51°50' E 001°48'7 6.6
2014-Jul-28 17:33N 51°44' E 001°49'7 7.4
2014-Jul-28 16:33N 51°36' E 001°49'9 8.7
2014-Jul-28 15:33N 51°28' E 001°48'10 9.7
2014-Jul-28 14:33N 51°19' E 001°42'9 9.2
2014-Jul-28 13:34N 51°10' E 001°39'54 8.6
2014-Jul-28 07:16N 50°27' E 000°45'6 8.3
2014-Jul-28 06:32N 50°26' E 000°36'143 9.4
2014-Jul-27 15:21N 49°45' W 002°58'130 7.7
2014-Jul-26 22:33N 48°18' W 005°25'8 8.5
2014-Jul-26 21:33N 48°11' W 005°18'8 7.8
2014-Jul-26 20:33N 48°05' W 005°12'8 8.2
2014-Jul-26 19:32N 47°60' W 005°02'7 7.6
2014-Jul-26 18:33N 47°55' W 004°53'8 8.1
2014-Jul-26 17:33N 47°50' W 004°44'8 8.3
2014-Jul-26 16:33N 47°45' W 004°34'16 8.2
2014-Jul-26 14:33N 47°34' W 004°16'72 8.9
2014-Jul-26 06:28N 46°49' W 002°53'28 9.1
2014-Jul-26 03:25N 46°31' W 002°22'9 8.7
2014-Jul-26 02:22N 46°25' W 002°12'8 8.8
2014-Jul-26 01:31N 46°21' W 002°03'8 8.9
2014-Jul-26 00:33N 46°15' W 001°54'9 8.9
2014-Jul-25 23:33N 46°11' W 001°43'9 8.7
2014-Jul-25 22:33N 46°08' W 001°31'9 0.5
2014-Jul-25 06:06N 46°06' W 001°18'5 8.4
2014-Jul-25 05:32N 46°06' W 001°25'8 8.4
2014-Jul-25 04:33N 46°07' W 001°37'9 8.6
2014-Jul-25 03:33N 46°11' W 001°48'10 9.6
2014-Jul-25 02:33N 46°17' W 001°58'10 9.5
2014-Jul-25 01:32N 46°24' W 002°09'1010.0
2014-Jul-25 00:33N 46°30' W 002°20'10 9.7
2014-Jul-24 23:33N 46°36' W 002°31'29 9.8
2014-Jul-24 20:33N 46°54' W 003°05'13 9.9
2014-Jul-24 19:12N 47°03' W 003°20'2710.2
2014-Jul-24 16:34N 47°20' W 003°50'1110.6
2014-Jul-24 15:33N 47°27' W 004°03'1110.8
2014-Jul-24 14:33N 47°33' W 004°15'2110.7
2014-Jul-24 12:33N 47°47' W 004°39'9 9.5
2014-Jul-24 11:33N 47°53' W 004°50'9 9.1
2014-Jul-24 10:33N 47°59' W 005°01'19 9.5
2014-Jul-24 08:33N 48°13' W 005°20'1010.1
2014-Jul-24 07:33N 48°20' W 005°30'2110.4
2014-Jul-24 05:33N 48°36' W 005°51'33 8.2
2014-Jul-24 01:33N 49°02' W 005°21'182 5.5
2014-Jul-22 16:28N 51°55' W 006°51'8 9.0
2014-Jul-22 15:33N 52°03' W 006°54'9 8.9
2014-Jul-22 14:33N 52°12' W 006°56'7 7.3
2014-Jul-22 13:33N 52°19' W 007°00'5 5.2
2014-Jul-22 12:33N 52°24' W 006°57'0 0.0
2014-Jul-22 11:32N 52°24' W 006°57'0 0.0
2014-Jul-22 10:32N 52°24' W 006°57'0 0.0
2014-Jul-22 09:32N 52°24' W 006°57'0 0.0
2014-Jul-22 08:32N 52°24' W 006°57'0 0.0
2014-Jul-22 07:29N 52°24' W 006°57'0 0.0
2014-Jul-22 06:32N 52°24' W 006°57'0 0.0
2014-Jul-22 05:29N 52°24' W 006°57'0 0.0
2014-Jul-22 04:29N 52°24' W 006°57'0 0.0
2014-Jul-22 03:29N 52°24' W 006°57'0 0.0
2014-Jul-22 02:32N 52°24' W 006°57'0 0.0
2014-Jul-22 01:32N 52°24' W 006°57'0 0.0
2014-Jul-22 00:32N 52°24' W 006°57'0 0.0
2014-Jul-21 23:29N 52°24' W 006°57'0 0.0
2014-Jul-21 22:26N 52°24' W 006°57'0 0.0
2014-Jul-21 21:20N 52°24' W 006°57'0 0.0
2014-Jul-21 20:32N 52°24' W 006°57'0 0.0
2014-Jul-21 20:17N 52°24' W 006°57'0 0.0
2014-Jul-21 19:32N 52°24' W 006°57'0 0.0
2014-Jul-21 18:32N 52°24' W 006°57'0 0.0
2014-Jul-21 17:29N 52°24' W 006°57'0 0.0
2014-Jul-21 16:26N 52°24' W 006°57'0 0.0
2014-Jul-21 15:32N 52°24' W 006°57'0 0.0
2014-Jul-21 14:23N 52°24' W 006°57'0 0.0
2014-Jul-21 13:29N 52°24' W 006°57'0 0.0
2014-Jul-21 12:20N 52°24' W 006°57'0 0.0
2014-Jul-21 11:29N 52°24' W 006°57'0 0.0
2014-Jul-21 10:32N 52°24' W 006°57'0 0.0
2014-Jul-21 09:26N 52°24' W 006°57'0 0.0
2014-Jul-21 08:32N 52°24' W 006°57'0 0.0
2014-Jul-21 07:32N 52°24' W 006°57'0 0.0
2014-Jul-21 06:26N 52°24' W 006°57'0 0.0
2014-Jul-21 05:29N 52°24' W 006°57'0 0.0
2014-Jul-21 04:32N 52°24' W 006°57'0 0.0
2014-Jul-21 03:32N 52°24' W 006°57'0 0.0
2014-Jul-21 02:29N 52°24' W 006°57'0 0.0
2014-Jul-21 01:23N 52°24' W 006°57'0 0.0
2014-Jul-21 00:32N 52°24' W 006°57'0 0.0
2014-Jul-20 23:32N 52°24' W 006°57'0 0.0
2014-Jul-20 22:29N 52°24' W 006°57'0 0.0
2014-Jul-20 21:32N 52°24' W 006°57'0 0.0
2014-Jul-20 19:32N 52°24' W 006°57'0 0.0
2014-Jul-20 18:14N 52°24' W 006°57'0 0.0
2014-Jul-20 15:20N 52°24' W 006°57'0 0.0
2014-Jul-20 12:32N 52°24' W 006°57'5 5.2
2014-Jul-20 11:34N 52°19' W 007°00'8 7.6
2014-Jul-20 10:33N 52°12' W 006°56'3 3.0
2014-Jul-20 09:33N 52°09' W 006°58'0 0.1
2014-Jul-20 08:33N 52°09' W 006°58'0 0.0
2014-Jul-20 07:33N 52°09' W 006°58'0 0.0
2014-Jul-20 06:33N 52°09' W 006°58'0 0.0
2014-Jul-20 05:33N 52°09' W 006°58'0 0.0
2014-Jul-20 04:30N 52°09' W 006°58'0 0.0
2014-Jul-20 03:12N 52°09' W 006°58'0 0.0
2014-Jul-20 02:30N 52°09' W 006°58'0 0.0
2014-Jul-20 01:18N 52°09' W 006°58'0 0.0
2014-Jul-20 00:33N 52°09' W 006°58'0 0.0
2014-Jul-19 23:33N 52°09' W 006°58'0 0.0
2014-Jul-19 22:33N 52°09' W 006°58'0 0.0
2014-Jul-19 21:33N 52°09' W 006°58'0 0.0
2014-Jul-19 20:21N 52°09' W 006°58'0 0.0
2014-Jul-19 18:27N 52°09' W 006°58'0 0.0
2014-Jul-19 17:33N 52°09' W 006°58'0 0.0
2014-Jul-19 16:33N 52°09' W 006°58'0 0.0
2014-Jul-19 15:30N 52°09' W 006°58'0 0.0
2014-Jul-19 14:33N 52°09' W 006°58'0 0.0
2014-Jul-19 13:30N 52°09' W 006°58'0 0.0
2014-Jul-19 11:33N 52°09' W 006°58'0 0.0
2014-Jul-19 10:33N 52°09' W 006°58'4 3.7
2014-Jul-19 09:34N 52°05' W 006°56'10 9.8
2014-Jul-19 08:33N 51°56' W 006°51'  
Track history (hours):
 
Tides and Currents Weather Stations Pressure Air Temp Water Temp Dewpoint Dewpoint Depression Visibility Wind Speed Wind Dir Waves Ship Positions

Ida

Last reported at 2014-Jul-29 05:33 UTC. Time now 2014-Jul-30 00:56 UTC.
Position N 52°59' E 001°14'.

Length 82 m; draft 4.6 m.

Type: Cargo ship. MMSI: 210319000.

Date/timePositionNaut miles runAvg speedWind from/ knotsBaromVisibWave heightAir tempDewpointWater temp
2014-Jul-29 05:33N 52°59' E 001°14'9 8.8
2014-Jul-29 04:33N 52°56' E 001°27'1110.5
2014-Jul-29 03:33N 52°50' E 001°42'1110.5
2014-Jul-29 02:32N 52°42' E 001°55'1110.3
2014-Jul-29 01:30N 52°32' E 001°54'17 7.6
2014-Jul-28 23:15N 52°15' E 001°52'4 5.8
2014-Jul-28 22:33N 52°11' E 001°51'5 5.3
2014-Jul-28 21:33N 52°06' E 001°50'4 4.5
2014-Jul-28 20:33N 52°01' E 001°50'5 5.1
2014-Jul-28 19:33N 51°56' E 001°49'6 5.9
2014-Jul-28 18:33N 51°50' E 001°48'7 6.6
2014-Jul-28 17:33N 51°44' E 001°49'7 7.4
2014-Jul-28 16:33N 51°36' E 001°49'9 8.7
2014-Jul-28 15:33N 51°28' E 001°48'10 9.7
2014-Jul-28 14:33N 51°19' E 001°42'9 9.2
2014-Jul-28 13:34N 51°10' E 001°39'54 8.6
2014-Jul-28 07:16N 50°27' E 000°45'6 8.3
2014-Jul-28 06:32N 50°26' E 000°36'143 9.4
2014-Jul-27 15:21N 49°45' W 002°58'130 7.7
2014-Jul-26 22:33N 48°18' W 005°25'8 8.5
2014-Jul-26 21:33N 48°11' W 005°18'8 7.8
2014-Jul-26 20:33N 48°05' W 005°12'8 8.2
2014-Jul-26 19:32N 47°60' W 005°02'7 7.6
2014-Jul-26 18:33N 47°55' W 004°53'8 8.1
2014-Jul-26 17:33N 47°50' W 004°44'8 8.3
2014-Jul-26 16:33N 47°45' W 004°34'16 8.2
2014-Jul-26 14:33N 47°34' W 004°16'72 8.9
2014-Jul-26 06:28N 46°49' W 002°53'28 9.1
2014-Jul-26 03:25N 46°31' W 002°22'9 8.7
2014-Jul-26 02:22N 46°25' W 002°12'8 8.8
2014-Jul-26 01:31N 46°21' W 002°03'8 8.9
2014-Jul-26 00:33N 46°15' W 001°54'9 8.9
2014-Jul-25 23:33N 46°11' W 001°43'9 8.7
2014-Jul-25 22:33N 46°08' W 001°31'9 0.5
2014-Jul-25 06:06N 46°06' W 001°18'5 8.4
2014-Jul-25 05:32N 46°06' W 001°25'8 8.4
2014-Jul-25 04:33N 46°07' W 001°37'9 8.6
2014-Jul-25 03:33N 46°11' W 001°48'10 9.6
2014-Jul-25 02:33N 46°17' W 001°58'10 9.5
2014-Jul-25 01:32N 46°24' W 002°09'1010.0
2014-Jul-25 00:33N 46°30' W 002°20'10 9.7
2014-Jul-24 23:33N 46°36' W 002°31'29 9.8
2014-Jul-24 20:33N 46°54' W 003°05'13 9.9
2014-Jul-24 19:12N 47°03' W 003°20'2710.2
2014-Jul-24 16:34N 47°20' W 003°50'1110.6
2014-Jul-24 15:33N 47°27' W 004°03'1110.8
2014-Jul-24 14:33N 47°33' W 004°15'2110.7
2014-Jul-24 12:33N 47°47' W 004°39'9 9.5
2014-Jul-24 11:33N 47°53' W 004°50'9 9.1
2014-Jul-24 10:33N 47°59' W 005°01'19 9.5
2014-Jul-24 08:33N 48°13' W 005°20'1010.1
2014-Jul-24 07:33N 48°20' W 005°30'2110.4
2014-Jul-24 05:33N 48°36' W 005°51'33 8.2
2014-Jul-24 01:33N 49°02' W 005°21'182 5.5
2014-Jul-22 16:28N 51°55' W 006°51'8 9.0
2014-Jul-22 15:33N 52°03' W 006°54'9 8.9
2014-Jul-22 14:33N 52°12' W 006°56'7 7.3
2014-Jul-22 13:33N 52°19' W 007°00'5 5.2
2014-Jul-22 12:33N 52°24' W 006°57'0 0.0
2014-Jul-22 11:32N 52°24' W 006°57'0 0.0
2014-Jul-22 10:32N 52°24' W 006°57'0 0.0
2014-Jul-22 09:32N 52°24' W 006°57'0 0.0
2014-Jul-22 08:32N 52°24' W 006°57'0 0.0
2014-Jul-22 07:29N 52°24' W 006°57'0 0.0
2014-Jul-22 06:32N 52°24' W 006°57'0 0.0
2014-Jul-22 05:29N 52°24' W 006°57'0 0.0
2014-Jul-22 04:29N 52°24' W 006°57'0 0.0
2014-Jul-22 03:29N 52°24' W 006°57'0 0.0
2014-Jul-22 02:32N 52°24' W 006°57'0 0.0
2014-Jul-22 01:32N 52°24' W 006°57'0 0.0
2014-Jul-22 00:32N 52°24' W 006°57'0 0.0
2014-Jul-21 23:29N 52°24' W 006°57'0 0.0
2014-Jul-21 22:26N 52°24' W 006°57'0 0.0
2014-Jul-21 21:20N 52°24' W 006°57'0 0.0
2014-Jul-21 20:32N 52°24' W 006°57'0 0.0
2014-Jul-21 20:17N 52°24' W 006°57'0 0.0
2014-Jul-21 19:32N 52°24' W 006°57'0 0.0
2014-Jul-21 18:32N 52°24' W 006°57'0 0.0
2014-Jul-21 17:29N 52°24' W 006°57'0 0.0
2014-Jul-21 16:26N 52°24' W 006°57'0 0.0
2014-Jul-21 15:32N 52°24' W 006°57'0 0.0
2014-Jul-21 14:23N 52°24' W 006°57'0 0.0
2014-Jul-21 13:29N 52°24' W 006°57'0 0.0
2014-Jul-21 12:20N 52°24' W 006°57'0 0.0
2014-Jul-21 11:29N 52°24' W 006°57'0 0.0
2014-Jul-21 10:32N 52°24' W 006°57'0 0.0
2014-Jul-21 09:26N 52°24' W 006°57'0 0.0
2014-Jul-21 08:32N 52°24' W 006°57'0 0.0
2014-Jul-21 07:32N 52°24' W 006°57'0 0.0
2014-Jul-21 06:26N 52°24' W 006°57'0 0.0
2014-Jul-21 05:29N 52°24' W 006°57'0 0.0
2014-Jul-21 04:32N 52°24' W 006°57'0 0.0
2014-Jul-21 03:32N 52°24' W 006°57'0 0.0
2014-Jul-21 02:29N 52°24' W 006°57'0 0.0
2014-Jul-21 01:23N 52°24' W 006°57'0 0.0
2014-Jul-21 00:32N 52°24' W 006°57'0 0.0
2014-Jul-20 23:32N 52°24' W 006°57'0 0.0
2014-Jul-20 22:29N 52°24' W 006°57'0 0.0
2014-Jul-20 21:32N 52°24' W 006°57'0 0.0
2014-Jul-20 19:32N 52°24' W 006°57'0 0.0
2014-Jul-20 18:14N 52°24' W 006°57'0 0.0
2014-Jul-20 15:20N 52°24' W 006°57'0 0.0
2014-Jul-20 12:32N 52°24' W 006°57'5 5.2
2014-Jul-20 11:34N 52°19' W 007°00'8 7.6
2014-Jul-20 10:33N 52°12' W 006°56'3 3.0
2014-Jul-20 09:33N 52°09' W 006°58'0 0.1
2014-Jul-20 08:33N 52°09' W 006°58'0 0.0
2014-Jul-20 07:33N 52°09' W 006°58'0 0.0
2014-Jul-20 06:33N 52°09' W 006°58'0 0.0
2014-Jul-20 05:33N 52°09' W 006°58'0 0.0
2014-Jul-20 04:30N 52°09' W 006°58'0 0.0
2014-Jul-20 03:12N 52°09' W 006°58'0 0.0
2014-Jul-20 02:30N 52°09' W 006°58'0 0.0
2014-Jul-20 01:18N 52°09' W 006°58'0 0.0
2014-Jul-20 00:33N 52°09' W 006°58'0 0.0
2014-Jul-19 23:33N 52°09' W 006°58'0 0.0
2014-Jul-19 22:33N 52°09' W 006°58'0 0.0
2014-Jul-19 21:33N 52°09' W 006°58'0 0.0
2014-Jul-19 20:21N 52°09' W 006°58'0 0.0
2014-Jul-19 18:27N 52°09' W 006°58'0 0.0
2014-Jul-19 17:33N 52°09' W 006°58'0 0.0
2014-Jul-19 16:33N 52°09' W 006°58'0 0.0
2014-Jul-19 15:30N 52°09' W 006°58'0 0.0
2014-Jul-19 14:33N 52°09' W 006°58'0 0.0
2014-Jul-19 13:30N 52°09' W 006°58'0 0.0
2014-Jul-19 11:33N 52°09' W 006°58'0 0.0
2014-Jul-19 10:33N 52°09' W 006°58'4 3.7
2014-Jul-19 09:34N 52°05' W 006°56'10 9.8
2014-Jul-19 08:33N 51°56' W 006°51'  

Dump ship's entire track history